createdAt,value
2022-10-21T00:01:22.151Z,100892.47
2022-10-21T00:03:48.537Z,100892.34
2022-10-21T00:06:14.846Z,100887.25
2022-10-21T00:08:41.194Z,100886.44
2022-10-21T00:11:09.559Z,100882.88
2022-10-21T00:13:38.638Z,100879.41
2022-10-21T00:16:08.579Z,100884.75
2022-10-21T00:18:36.696Z,100896.06
2022-10-21T00:21:08.727Z,100894.25
2022-10-21T00:23:35.332Z,100891.78
2022-10-21T00:26:02.084Z,100900.56
2022-10-21T00:28:30.212Z,100904.00
2022-10-21T00:30:58.339Z,100906.63
2022-10-21T00:33:26.022Z,100898.78
2022-10-21T00:35:55.051Z,100897.94
2022-10-21T00:40:47.918Z,100902.34
2022-10-21T00:43:14.607Z,100894.50
2022-10-21T00:45:41.331Z,100880.63
2022-10-21T00:48:27.276Z,100881.44
2022-10-21T00:50:58.696Z,100875.41
2022-10-21T00:53:25.923Z,100865.91
2022-10-21T00:56:16.283Z,100867.56
2022-10-21T00:58:43.451Z,100866.72
2022-10-21T01:01:10.108Z,100871.13
2022-10-21T01:03:36.514Z,100859.84
2022-10-21T01:06:08.329Z,100867.56
2022-10-21T01:08:35.572Z,100870.31
2022-10-21T01:11:03.052Z,100859.00
2022-10-21T01:13:54.003Z,100853.91
2022-10-21T01:16:28.934Z,100853.78
2022-10-21T01:19:16.702Z,100848.69
2022-10-21T01:21:52.328Z,100850.34
2022-10-21T01:25:09.285Z,100853.78
2022-10-21T01:27:54.931Z,100857.34
2022-10-21T01:30:33.446Z,100854.72
2022-10-21T01:33:29.756Z,100837.41
2022-10-21T01:36:09.091Z,100845.25
2022-10-21T01:38:48.396Z,100840.97
2022-10-21T01:41:35.973Z,100838.22
2022-10-21T01:44:39.509Z,100833.13
2022-10-21T01:47:22.711Z,100828.84
2022-10-21T01:49:56.056Z,100821.88
2022-10-21T01:52:22.943Z,100825.41
2022-10-21T01:54:55.160Z,100821.00
2022-10-21T01:57:24.731Z,100826.25
2022-10-21T01:59:52.350Z,100814.16
2022-10-21T02:02:22.356Z,100815.78
2022-10-21T02:04:52.448Z,100810.56
2022-10-21T02:07:18.830Z,100808.09
2022-10-21T02:09:45.369Z,100807.25
2022-10-21T02:12:12.084Z,100808.09
2022-10-21T02:14:44.221Z,100807.25
2022-10-21T02:17:15.150Z,100803.84
2022-10-21T02:19:41.748Z,100796.81
2022-10-21T02:22:10.963Z,100788.16
2022-10-21T02:24:52.347Z,100779.47
2022-10-21T02:27:19.601Z,100780.31
2022-10-21T02:29:48.349Z,100776.03
2022-10-21T02:32:37.233Z,100778.66
2022-10-21T02:35:13.752Z,100770.94
2022-10-21T02:38:14.557Z,100767.50
2022-10-21T02:40:54.193Z,100770.94
2022-10-21T02:43:33.447Z,100763.13
2022-10-21T02:46:05.343Z,100754.44
2022-10-21T02:48:37.078Z,100751.94
2022-10-21T02:51:06.179Z,100765.84
2022-10-21T02:53:33.531Z,100766.66
2022-10-21T02:55:59.956Z,100768.47
2022-10-21T02:58:26.687Z,100776.28
2022-10-21T03:00:53.317Z,100766.78
2022-10-21T03:03:19.683Z,100763.38
2022-10-21T03:05:46.178Z,100765.97
2022-10-21T03:08:12.497Z,100764.19
2022-10-21T03:10:38.832Z,100770.22
2022-10-21T03:13:05.159Z,100757.28
2022-10-21T03:15:31.626Z,100759.91
2022-10-21T03:17:57.992Z,100756.47
2022-10-21T03:20:24.414Z,100761.69
2022-10-21T03:22:50.765Z,100760.88
2022-10-21T03:25:17.416Z,100767.03
2022-10-21T03:27:43.759Z,100773.94
2022-10-21T03:30:10.544Z,100767.88
2022-10-21T03:32:37.175Z,100773.09
2022-10-21T03:35:04.107Z,100772.28
2022-10-21T03:37:30.428Z,100767.97
2022-10-21T03:39:56.744Z,100764.53
2022-10-21T03:42:23.045Z,100769.75
2022-10-21T03:44:49.352Z,100761.91
2022-10-21T03:47:15.647Z,100759.31
2022-10-21T03:49:41.945Z,100750.66
2022-10-21T03:52:08.267Z,100737.59
2022-10-21T03:54:34.723Z,100737.59
2022-10-21T03:57:01.066Z,100725.47
2022-10-21T03:59:27.467Z,100725.47
2022-10-21T04:01:53.909Z,100727.25
2022-10-21T04:04:20.568Z,100718.59
2022-10-21T04:06:46.895Z,100715.16
2022-10-21T04:09:13.372Z,100720.38
2022-10-21T04:11:39.734Z,100722.16
2022-10-21T04:14:06.027Z,100716.94
2022-10-21T04:16:33.781Z,100715.28
2022-10-21T04:19:00.949Z,100721.47
2022-10-21T04:21:27.367Z,100730.97
2022-10-21T04:23:53.709Z,100728.47
2022-10-21T04:26:20.174Z,100732.72
2022-10-21T04:28:46.599Z,100728.47
2022-10-21T04:31:12.930Z,100731.09
2022-10-21T04:33:39.318Z,100731.09
2022-10-21T04:36:06.200Z,100736.44
2022-10-21T04:38:32.555Z,100742.47
2022-10-21T04:41:01.847Z,100746.88
2022-10-21T04:43:29.343Z,100746.03
2022-10-21T04:45:56.070Z,100747.81
2022-10-21T04:48:22.662Z,100746.03
2022-10-21T04:50:50.713Z,100745.22
2022-10-21T04:53:17.397Z,100741.78
2022-10-21T04:55:43.999Z,100740.94
2022-10-21T04:58:10.436Z,100748.75
2022-10-21T05:00:36.927Z,100746.16
2022-10-21T05:03:03.503Z,100738.44
2022-10-21T05:05:29.824Z,100744.50
2022-10-21T05:07:56.154Z,100751.50
2022-10-21T05:10:23.754Z,100745.47
2022-10-21T05:12:50.104Z,100742.84
2022-10-21T05:15:16.403Z,100749.84
2022-10-21T05:17:42.786Z,100750.81
2022-10-21T05:20:09.849Z,100756.03
2022-10-21T05:22:36.580Z,100752.56
2022-10-21T05:25:03.299Z,100752.56
2022-10-21T05:27:29.617Z,100756.97
2022-10-21T05:29:56.574Z,100746.53
2022-10-21T05:32:22.924Z,100746.53
2022-10-21T05:34:49.260Z,100753.53
2022-10-21T05:37:15.791Z,100737.03
2022-10-21T05:42:08.527Z,100736.22
2022-10-21T05:44:34.823Z,100744.03
2022-10-21T05:47:01.124Z,100740.63
2022-10-21T05:49:27.440Z,100747.59
2022-10-21T05:51:53.775Z,100748.56
2022-10-21T05:54:20.379Z,100745.97
2022-10-21T05:56:48.009Z,100737.28
2022-10-21T05:59:14.844Z,100736.34
2022-10-21T06:01:41.250Z,100730.38
2022-10-21T06:04:08.172Z,100733.84
2022-10-21T06:06:34.484Z,100728.75
2022-10-21T06:09:00.890Z,100733.00
2022-10-21T06:11:27.295Z,100731.38
2022-10-21T06:13:53.647Z,100724.47
2022-10-21T06:16:19.957Z,100726.97
2022-10-21T06:18:46.341Z,100729.56
2022-10-21T06:21:12.722Z,100721.03
2022-10-21T06:23:39.120Z,100712.38
2022-10-21T06:26:14.751Z,100722.81
2022-10-21T06:28:42.806Z,100716.78
2022-10-21T06:31:13.530Z,100719.38
2022-10-21T06:33:39.871Z,100712.50
2022-10-21T06:36:06.590Z,100723.78
2022-10-21T06:38:33.667Z,100724.72
2022-10-21T06:41:09.143Z,100720.31
2022-10-21T06:43:39.079Z,100718.44
2022-10-21T06:46:07.729Z,100716.66
2022-10-21T06:48:34.542Z,100722.69
2022-10-21T06:51:04.400Z,100733.13
2022-10-21T06:53:34.013Z,100733.00
2022-10-21T06:56:09.271Z,100744.28
2022-10-21T06:58:37.312Z,100743.34
2022-10-21T07:01:27.304Z,100741.56
2022-10-21T07:03:58.887Z,100744.16
2022-10-21T07:06:25.618Z,100754.59
2022-10-21T07:08:58.379Z,100744.03
2022-10-21T07:11:25.564Z,100734.53
2022-10-21T07:13:51.979Z,100741.44
2022-10-21T07:16:27.141Z,100743.09
2022-10-21T07:18:53.739Z,100743.09
2022-10-21T07:21:22.488Z,100742.97
2022-10-21T07:23:51.272Z,100753.28
2022-10-21T07:26:21.660Z,100749.84
2022-10-21T07:28:48.239Z,100760.16
2022-10-21T07:31:19.748Z,100759.34
2022-10-21T07:33:46.565Z,100757.53
2022-10-21T07:36:21.718Z,100746.28
2022-10-21T07:38:50.163Z,100752.22
2022-10-21T07:41:22.451Z,100756.47
2022-10-21T07:43:50.087Z,100757.44
2022-10-21T07:46:17.835Z,100764.31
2022-10-21T07:48:44.222Z,100764.31
2022-10-21T07:51:16.820Z,100786.88
2022-10-21T07:53:43.134Z,100794.69
2022-10-21T07:56:31.419Z,100806.81
2022-10-21T07:58:58.054Z,100799.78
2022-10-21T08:01:24.890Z,100792.78
2022-10-21T08:03:53.477Z,100800.63
2022-10-21T08:06:20.431Z,100798.97
2022-10-21T08:08:47.187Z,100796.38
2022-10-21T08:11:28.547Z,100801.59
2022-10-21T08:13:55.420Z,100798.13
2022-10-21T08:16:22.451Z,100791.03
2022-10-21T08:18:48.861Z,100790.16
2022-10-21T08:21:15.391Z,100800.50
2022-10-21T08:23:41.758Z,100786.63
2022-10-21T08:26:11.434Z,100796.13
2022-10-21T08:28:37.805Z,100787.44
2022-10-21T08:31:09.641Z,100790.03
2022-10-21T08:33:36.710Z,100783.88
2022-10-21T08:36:12.596Z,100776.97
2022-10-21T08:38:38.931Z,100768.22
2022-10-21T08:41:25.988Z,100770.00
2022-10-21T08:43:54.289Z,100763.94
2022-10-21T08:46:26.296Z,100763.94
2022-10-21T08:49:08.180Z,100763.13
2022-10-21T08:51:49.373Z,100767.50
2022-10-21T08:54:21.926Z,100763.13
2022-10-21T08:56:54.937Z,100768.34
2022-10-21T08:59:24.786Z,100761.19
2022-10-21T09:02:18.160Z,100780.19
2022-10-21T09:04:55.418Z,100769.75
2022-10-21T09:07:40.705Z,100784.38
2022-10-21T09:10:35.811Z,100787.13
2022-10-21T09:13:10.606Z,100791.25
2022-10-21T09:16:00.970Z,100795.53
2022-10-21T09:18:53.717Z,100797.31
2022-10-21T09:22:05.895Z,100784.38
2022-10-21T09:24:59.305Z,100791.25
2022-10-21T09:27:32.035Z,100789.47
2022-10-21T09:30:06.896Z,100792.91
2022-10-21T09:32:39.568Z,100799.06
2022-10-21T09:35:22.407Z,100794.69
2022-10-21T09:37:53.903Z,100798.13
2022-10-21T09:40:30.512Z,100795.66
2022-10-21T09:42:59.434Z,100818.22
2022-10-21T09:45:36.059Z,100820.69
2022-10-21T09:48:17.732Z,100807.50
2022-10-21T09:50:46.416Z,100805.84
2022-10-21T09:53:26.735Z,100807.63
2022-10-21T09:56:01.735Z,100807.75
2022-10-21T09:58:43.976Z,100800.75
2022-10-21T10:01:16.998Z,100798.00
2022-10-21T10:03:46.708Z,100810.94
2022-10-21T10:06:13.213Z,100813.31
2022-10-21T10:08:44.946Z,100805.47
2022-10-21T10:11:14.087Z,100802.72
2022-10-21T10:13:52.068Z,100805.22
2022-10-21T10:16:32.581Z,100802.72
2022-10-21T10:19:20.483Z,100806.88
2022-10-21T10:21:51.274Z,100809.50
2022-10-21T10:24:19.700Z,100806.06
2022-10-21T10:26:46.940Z,100808.69
2022-10-21T10:29:16.344Z,100808.81
2022-10-21T10:31:52.931Z,100806.19
2022-10-21T10:34:37.486Z,100804.53
2022-10-21T10:37:17.491Z,100804.53
2022-10-21T10:39:48.002Z,100802.84
2022-10-21T10:42:44.099Z,100803.59
2022-10-21T10:45:19.477Z,100795.03
2022-10-21T10:47:57.501Z,100796.00
2022-10-21T10:50:42.508Z,100808.09
2022-10-21T10:53:24.007Z,100807.13
2022-10-21T10:56:20.880Z,100803.72
2022-10-21T10:58:56.792Z,100801.09
2022-10-21T11:01:33.286Z,100795.75
2022-10-21T11:04:24.317Z,100802.59
2022-10-21T11:06:56.063Z,100799.19
2022-10-21T11:09:27.301Z,100807.00
2022-10-21T11:11:56.206Z,100806.19
2022-10-21T11:14:22.933Z,100806.88
2022-10-21T11:17:00.254Z,100806.75
2022-10-21T11:19:52.364Z,100807.59
2022-10-21T11:22:29.594Z,100806.88
2022-10-21T11:25:18.414Z,100808.56
2022-10-21T11:28:05.704Z,100809.38
2022-10-21T11:30:54.795Z,100812.84
2022-10-21T11:34:02.602Z,100807.59
2022-10-21T11:37:08.142Z,100811.59
2022-10-21T11:39:58.433Z,100806.38
2022-10-21T11:42:27.436Z,100809.72
2022-10-21T11:45:20.795Z,100807.66
2022-10-21T11:47:58.852Z,100800.81
2022-10-21T11:50:34.527Z,100803.28
2022-10-21T11:53:48.660Z,100799.56
2022-10-21T11:56:47.791Z,100798.63
2022-10-21T12:02:12.169Z,100800.31
2022-10-21T12:05:12.199Z,100787.13
2022-10-21T12:07:42.974Z,100801.84
2022-10-21T12:10:15.631Z,100784.50
2022-10-21T12:12:46.427Z,100776.66
2022-10-21T12:15:25.172Z,100776.53
2022-10-21T12:17:53.119Z,100771.44
2022-10-21T12:20:24.150Z,100781.88
2022-10-21T12:22:56.861Z,100786.25
2022-10-21T12:25:34.450Z,100775.00
2022-10-21T12:28:16.248Z,100782.69
2022-10-21T12:31:02.756Z,100789.59
2022-10-21T12:33:43.085Z,100791.25
2022-10-21T12:36:24.323Z,100792.91
2022-10-21T12:38:55.127Z,100789.47
2022-10-21T12:41:24.390Z,100789.47
2022-10-21T12:44:02.975Z,100795.50
2022-10-21T12:46:41.898Z,100788.53
2022-10-21T12:49:32.607Z,100781.63
2022-10-21T12:52:22.490Z,100777.34
2022-10-21T12:55:03.909Z,100779.84
2022-10-21T12:57:33.897Z,100791.13
2022-10-21T13:00:22.104Z,100797.31
2022-10-21T13:03:07.763Z,100786.03
2022-10-21T13:05:37.027Z,100786.97
2022-10-21T13:08:25.604Z,100796.50
2022-10-21T13:11:06.927Z,100780.94
2022-10-21T13:13:37.463Z,100778.31
2022-10-21T13:16:19.001Z,100780.09
2022-10-21T13:19:05.099Z,100782.69
2022-10-21T13:21:41.787Z,100776.66
2022-10-21T13:24:30.323Z,100773.91
2022-10-21T13:26:58.802Z,100780.94
2022-10-21T13:29:28.040Z,100775.72
2022-10-21T13:32:19.361Z,100772.97
2022-10-21T13:34:48.674Z,100782.56
2022-10-21T13:37:21.933Z,100778.31
2022-10-21T13:39:51.569Z,100782.69
2022-10-21T13:42:21.739Z,100786.16
2022-10-21T13:44:53.183Z,100779.28
2022-10-21T13:47:41.201Z,100786.16
2022-10-21T13:50:18.435Z,100784.38
2022-10-21T13:52:45.280Z,100789.47
2022-10-21T13:55:23.849Z,100789.59
2022-10-21T13:57:52.624Z,100794.69
2022-10-21T14:00:30.542Z,100793.88
2022-10-21T14:03:05.656Z,100790.53
2022-10-21T14:05:38.564Z,100789.84
2022-10-21T14:08:19.014Z,100794.94
2022-10-21T14:10:46.668Z,100796.72
2022-10-21T14:13:13.517Z,100793.03
2022-10-21T14:15:43.650Z,100795.63
2022-10-21T14:18:25.921Z,100793.03
2022-10-21T14:20:55.447Z,100787.94
2022-10-21T14:23:23.265Z,100800.88
2022-10-21T14:25:52.056Z,100803.47
2022-10-21T14:28:20.763Z,100805.16
2022-10-21T14:30:48.068Z,100802.53
2022-10-21T14:33:20.872Z,100801.59
2022-10-21T14:36:05.689Z,100795.63
2022-10-21T14:38:45.365Z,100805.41
2022-10-21T14:41:16.743Z,100795.91
2022-10-21T14:43:44.587Z,100793.16
2022-10-21T14:46:11.259Z,100806.22
2022-10-21T14:48:43.950Z,100806.09
2022-10-21T14:51:16.522Z,100802.41
2022-10-21T14:54:01.907Z,100801.53
2022-10-21T14:56:33.776Z,100803.81
2022-10-21T14:59:03.363Z,100796.25
2022-10-21T15:01:30.836Z,100797.56
2022-10-21T15:03:59.655Z,100803.38
2022-10-21T15:06:39.192Z,100802.41
2022-10-21T15:09:17.597Z,100808.38
2022-10-21T15:11:45.703Z,100799.56
2022-10-21T15:14:15.015Z,100795.00
2022-10-21T15:16:55.124Z,100793.13
2022-10-21T15:19:45.334Z,100800.03
2022-10-21T15:22:23.357Z,100804.97
2022-10-21T15:24:50.484Z,100794.28
2022-10-21T15:27:37.028Z,100804.00
2022-10-21T15:30:14.644Z,100804.63
2022-10-21T15:32:41.007Z,100804.16
2022-10-21T15:35:13.854Z,100806.16
2022-10-21T15:37:40.604Z,100803.47
2022-10-21T15:40:07.640Z,100810.28
2022-10-21T15:42:34.368Z,100806.38
2022-10-21T15:45:02.088Z,100813.53
2022-10-21T15:47:28.397Z,100817.34
2022-10-21T15:49:56.061Z,100804.53
2022-10-21T15:52:22.456Z,100792.53
2022-10-21T15:54:48.771Z,100792.94
2022-10-21T15:57:21.523Z,100790.56
2022-10-21T15:59:47.934Z,100796.03
2022-10-21T16:02:17.434Z,100792.72
2022-10-21T16:04:45.085Z,100804.13
2022-10-21T16:07:25.116Z,100807.72
2022-10-21T16:09:51.425Z,100816.50
2022-10-21T16:12:20.456Z,100814.84
2022-10-21T16:14:46.960Z,100808.91
2022-10-21T16:17:13.666Z,100807.13
2022-10-21T16:19:42.098Z,100814.16
2022-10-21T16:22:15.876Z,100818.56
2022-10-21T16:24:42.293Z,100816.88
2022-10-21T16:27:11.504Z,100816.03
2022-10-21T16:29:37.937Z,100822.38
2022-10-21T16:32:04.435Z,100822.38
2022-10-21T16:34:30.750Z,100826.75
2022-10-21T16:36:57.148Z,100828.53
2022-10-21T16:39:25.275Z,100824.25
2022-10-21T16:41:52.583Z,100825.22
2022-10-21T16:44:19.158Z,100835.81
2022-10-21T16:46:55.482Z,100829.88
2022-10-21T16:49:25.071Z,100838.53
2022-10-21T16:51:52.928Z,100838.66
2022-10-21T16:54:20.481Z,100841.25
2022-10-21T16:56:46.831Z,100843.88
2022-10-21T16:59:13.188Z,100842.22
2022-10-21T17:01:39.896Z,100840.44
2022-10-21T17:04:06.209Z,100851.84
2022-10-21T17:06:32.814Z,100845.66
2022-10-21T17:08:59.204Z,100849.94
2022-10-21T17:11:35.167Z,100851.72
2022-10-21T17:14:03.615Z,100853.38
2022-10-21T17:16:29.948Z,100858.59
2022-10-21T17:18:56.308Z,100865.50
2022-10-21T17:21:30.625Z,100863.94
2022-10-21T17:23:58.970Z,100870.84
2022-10-21T17:26:25.461Z,100865.63
2022-10-21T17:28:52.220Z,100862.16
2022-10-21T17:31:21.056Z,100870.00
2022-10-21T17:33:48.629Z,100870.00
2022-10-21T17:36:15.626Z,100874.28
2022-10-21T17:38:42.798Z,100868.25
2022-10-21T17:41:10.752Z,100866.44
2022-10-21T17:43:37.749Z,100880.44
2022-10-21T17:46:04.818Z,100876.91
2022-10-21T17:48:31.947Z,100877.84
2022-10-21T17:51:00.360Z,100881.31
2022-10-21T17:53:28.710Z,100877.84
2022-10-21T17:56:00.262Z,100886.53
2022-10-21T17:58:27.365Z,100890.78
2022-10-21T18:00:56.534Z,100884.59
2022-10-21T18:03:28.054Z,100887.22
2022-10-21T18:05:55.860Z,100890.69
2022-10-21T18:08:23.802Z,100894.25
2022-10-21T18:10:55.351Z,100891.63
2022-10-21T18:13:23.752Z,100893.31
2022-10-21T18:15:50.874Z,100889.72
2022-10-21T18:18:18.015Z,100893.19
2022-10-21T18:20:44.848Z,100884.47
2022-10-21T18:23:12.191Z,100889.72
2022-10-21T18:25:39.549Z,100895.78
2022-10-21T18:28:05.937Z,100895.78
2022-10-21T18:30:33.071Z,100899.09
2022-10-21T18:32:59.437Z,100886.03
2022-10-21T18:35:26.072Z,100892.06
2022-10-21T18:37:52.376Z,100890.31
2022-10-21T18:40:19.287Z,100890.44
2022-10-21T18:42:45.678Z,100895.53
2022-10-21T18:45:12.207Z,100889.22
2022-10-21T18:47:38.945Z,100887.56
2022-10-21T18:50:05.616Z,100887.56
2022-10-21T18:52:31.914Z,100894.56
2022-10-21T18:54:58.233Z,100891.13
2022-10-21T18:57:24.637Z,100895.41
2022-10-21T18:59:50.964Z,100908.34
2022-10-21T19:02:21.416Z,100896.97
2022-10-21T19:04:48.156Z,100913.31
2022-10-21T19:07:15.415Z,100903.81
2022-10-21T19:09:41.888Z,100905.50
2022-10-21T19:12:11.941Z,100913.19
2022-10-21T19:14:40.796Z,100910.72
2022-10-21T19:17:07.092Z,100911.53
2022-10-21T19:19:37.173Z,100909.91
2022-10-21T19:22:05.621Z,100912.50
2022-10-21T19:24:31.936Z,100904.66
2022-10-21T19:26:59.243Z,100906.44
2022-10-21T19:29:26.008Z,100911.66
2022-10-21T19:31:52.606Z,100910.13
2022-10-21T19:34:22.439Z,100914.41
2022-10-21T19:36:49.683Z,100916.06
2022-10-21T19:39:16.480Z,100914.28
2022-10-21T19:41:43.092Z,100918.56
2022-10-21T19:44:09.517Z,100913.19
2022-10-21T19:46:36.250Z,100918.44
2022-10-21T19:49:04.590Z,100917.50
2022-10-21T19:51:31.233Z,100919.25
2022-10-21T19:53:57.731Z,100920.22
2022-10-21T19:56:29.575Z,100919.50
2022-10-21T19:58:59.185Z,100922.00
2022-10-21T20:01:26.552Z,100925.31
2022-10-21T20:03:54.171Z,100919.25
2022-10-21T20:06:26.480Z,100922.72
2022-10-21T20:08:55.313Z,100924.59
2022-10-21T20:11:22.337Z,100927.22
2022-10-21T20:13:50.096Z,100928.06
2022-10-21T20:16:18.500Z,100925.56
2022-10-21T20:18:45.527Z,100931.63
2022-10-21T20:21:12.469Z,100923.91
2022-10-21T20:23:38.959Z,100931.75
2022-10-21T20:26:06.048Z,100930.81
2022-10-21T20:28:32.688Z,100932.56
2022-10-21T20:31:02.017Z,100925.69
2022-10-21T20:33:30.566Z,100930.06
2022-10-21T20:35:57.397Z,100928.31
2022-10-21T20:38:24.099Z,100935.31
2022-10-21T20:41:02.783Z,100929.25
2022-10-21T20:43:29.784Z,100940.53
2022-10-21T20:45:56.101Z,100942.19
2022-10-21T20:48:22.463Z,100937.91
2022-10-21T20:50:48.780Z,100941.47
2022-10-21T20:53:15.124Z,100938.97
2022-10-21T20:55:42.732Z,100939.84
2022-10-21T20:58:09.053Z,100946.69
2022-10-21T21:00:37.108Z,100941.59
2022-10-21T21:03:03.521Z,100944.22
2022-10-21T21:05:29.842Z,100944.22
2022-10-21T21:07:56.157Z,100951.22
2022-10-21T21:10:22.536Z,100948.75
2022-10-21T21:12:48.966Z,100946.94
2022-10-21T21:15:15.347Z,100959.06
2022-10-21T21:17:41.660Z,100961.00
2022-10-21T21:20:08.648Z,100964.53
2022-10-21T21:22:36.689Z,100958.50
2022-10-21T21:25:04.163Z,100964.66
2022-10-21T21:27:30.690Z,100960.25
2022-10-21T21:29:57.027Z,100963.00
2022-10-21T21:32:23.442Z,100965.63
2022-10-21T21:34:54.855Z,100959.56
2022-10-21T21:37:22.619Z,100968.34
2022-10-21T21:39:48.939Z,100971.78
2022-10-21T21:42:15.499Z,100980.47
2022-10-21T21:44:41.820Z,100971.91
2022-10-21T21:47:08.125Z,100976.19
2022-10-21T21:49:34.860Z,100972.75
2022-10-21T21:52:01.176Z,100972.75
2022-10-21T21:54:27.572Z,100976.31
2022-10-21T21:57:00.681Z,100979.75
2022-10-21T21:59:42.469Z,100968.59
2022-10-21T22:02:09.031Z,100969.41
2022-10-21T22:04:35.416Z,100978.09
2022-10-21T22:07:02.952Z,100975.63
2022-10-21T22:09:29.511Z,100972.16
2022-10-21T22:11:55.811Z,100966.91
2022-10-21T22:14:22.103Z,100977.38
2022-10-21T22:16:48.460Z,100971.31
2022-10-21T22:19:14.754Z,100979.97
2022-10-21T22:21:41.052Z,100966.91
2022-10-21T22:24:07.375Z,100973.94
2022-10-21T22:26:33.688Z,100974.75
2022-10-21T22:28:59.987Z,100964.44
2022-10-21T22:31:29.468Z,100974.88
2022-10-21T22:33:58.001Z,100978.34
2022-10-21T22:36:24.343Z,100969.66
2022-10-21T22:38:50.716Z,100978.34
2022-10-21T22:41:17.016Z,100974.06
2022-10-21T22:43:43.500Z,100973.25
2022-10-21T22:48:56.725Z,100970.72
2022-10-21T22:51:23.086Z,100970.72
2022-10-21T22:53:53.627Z,100967.16
2022-10-21T22:56:24.052Z,100968.09
2022-10-21T22:58:50.382Z,100968.09
2022-10-21T23:01:16.946Z,100969.78
2022-10-21T23:03:43.236Z,100966.34
2022-10-21T23:06:09.627Z,100967.28
2022-10-21T23:08:35.999Z,100966.47
2022-10-21T23:11:02.402Z,100969.91
2022-10-21T23:13:28.752Z,100969.09
2022-10-21T23:15:55.088Z,100969.09
2022-10-21T23:18:21.396Z,100963.97
2022-10-21T23:20:47.704Z,100961.38
2022-10-21T23:23:14.023Z,100963.00
2022-10-21T23:25:40.467Z,100957.91
2022-10-21T23:28:09.613Z,100961.38
2022-10-21T23:30:36.879Z,100964.09
2022-10-21T23:33:03.641Z,100960.50
2022-10-21T23:35:30.029Z,100962.31
2022-10-21T23:37:56.353Z,100961.38
2022-10-21T23:40:22.693Z,100967.53
2022-10-21T23:42:48.992Z,100964.91
2022-10-21T23:45:15.335Z,100964.91
2022-10-21T23:47:41.944Z,100964.09
2022-10-21T23:50:09.823Z,100959.81
2022-10-21T23:52:37.787Z,100952.81
2022-10-21T23:55:06.084Z,100956.25
2022-10-21T23:57:32.459Z,100960.63
2022-10-21T23:59:58.778Z,100960.63
